Time;durP1;ratioP1;P1;durP2;ratioP2;P2;SDS_P1;SDS_P2;PMS_P1;PMS_P2;Temp;Humidity;BMP_temperature;BMP_pressure;BME280_temperature;BME280_humidity;BME280_pressure;Samples;Min_cycle;Max_cycle;Signal;HPM_P1;HPM_P2
2022/01/30 00:00:00;;;;;;;8.87;3.30;;;5.90;99.90;;;;;;5175894;28;20186;-51
2022/01/30 00:02:30;;;;;;;28.20;5.33;;;5.80;99.90;;;;;;5197579;28;20534;-50
2022/01/30 00:05:01;;;;;;;26.77;4.17;;;5.70;99.90;;;;;;5224298;22;20546;-50
2022/01/30 00:07:31;;;;;;;19.93;4.77;;;5.60;99.90;;;;;;5223939;28;20266;-51
2022/01/30 00:10:04;;;;;;;16.37;4.20;;;5.60;99.90;;;;;;5222393;28;20730;-51
2022/01/30 00:13:10;;;;;;;19.50;3.70;;;5.50;99.90;;;;;;5216385;28;20186;-51
2022/01/30 00:15:50;;;;;;;20.67;4.20;;;5.50;99.90;;;;;;5214276;28;20451;-51
2022/01/30 00:23:45;;;;;;;20.77;4.17;;;5.50;99.90;;;;;;5213217;28;20446;-51
2022/01/30 00:26:18;;;;;;;13.17;3.67;;;5.60;99.90;;;;;;5222038;28;20480;-50
2022/01/30 00:28:48;;;;;;;30.83;4.97;;;5.60;99.90;;;;;;5222181;28;20450;-51
2022/01/30 00:31:20;;;;;;;24.10;4.67;;;5.60;99.90;;;;;;5219006;28;20426;-52
2022/01/30 00:33:52;;;;;;;22.80;4.07;;;5.60;99.90;;;;;;5218499;28;20188;-51
2022/01/30 00:36:23;;;;;;;24.97;4.70;;;5.70;99.90;;;;;;5219129;28;20547;-52
2022/01/30 00:38:53;;;;;;;31.83;5.10;;;5.80;99.90;;;;;;5220558;28;20451;-50
2022/01/30 00:41:24;;;;;;;23.60;3.87;;;6.00;99.90;;;;;;5226386;28;20421;-52
2022/01/30 00:43:55;;;;;;;28.77;5.80;;;5.90;99.90;;;;;;5224490;28;20215;-51
2022/01/30 00:46:25;;;;;;;17.40;3.93;;;6.00;99.90;;;;;;5221216;28;20610;-51
2022/01/30 00:48:56;;;;;;;31.40;4.57;;;6.00;99.90;;;;;;5223881;28;20186;-51
2022/01/30 00:51:26;;;;;;;16.80;3.63;;;6.00;99.90;;;;;;5219070;28;20333;-51
2022/01/30 00:53:57;;;;;;;18.80;4.33;;;6.00;99.90;;;;;;5222601;28;20615;-50
2022/01/30 00:56:27;;;;;;;15.30;3.67;;;6.10;99.90;;;;;;5225286;28;20260;-51
2022/01/30 00:58:58;;;;;;;10.70;3.10;;;6.00;99.90;;;;;;5220853;28;20206;-51
2022/01/30 01:01:28;;;;;;;14.27;3.63;;;6.00;99.90;;;;;;5220787;28;20220;-52
2022/01/30 01:03:59;;;;;;;13.57;4.63;;;6.10;99.90;;;;;;5216047;28;20564;-52
2022/01/30 01:06:30;;;;;;;20.73;3.50;;;6.00;99.90;;;;;;5219491;28;20293;-51
2022/01/30 01:09:03;;;;;;;16.73;4.00;;;5.90;99.90;;;;;;5221095;28;20252;-50
2022/01/30 01:25:15;;;;;;;24.00;4.47;;;6.00;99.90;;;;;;5217339;28;20493;-51
2022/01/30 01:27:46;;;;;;;14.00;4.10;;;6.10;99.90;;;;;;5218834;28;20448;-51
2022/01/30 01:30:16;;;;;;;16.60;4.80;;;6.10;99.90;;;;;;5220423;28;20186;-50
2022/01/30 01:32:47;;;;;;;16.60;3.97;;;6.20;99.90;;;;;;5220045;28;20315;-52
2022/01/30 01:35:17;;;;;;;27.07;4.17;;;6.20;99.90;;;;;;5220500;28;20220;-51
2022/01/30 01:37:53;;;;;;;28.20;4.53;;;6.30;99.90;;;;;;5216607;28;20632;-51
2022/01/30 01:40:24;;;;;;;32.27;4.37;;;6.30;99.90;;;;;;5219017;28;20183;-52
2022/01/30 01:42:55;;;;;;;19.03;5.37;;;6.30;99.90;;;;;;5218134;28;20445;-51
2022/01/30 01:45:32;;;;;;;19.57;4.30;;;6.30;99.90;;;;;;5221128;28;20276;-50
2022/01/30 01:48:09;;;;;;;16.90;4.40;;;6.30;99.90;;;;;;5219225;28;20447;-51
2022/01/30 01:50:45;;;;;;;20.23;3.67;;;6.30;99.90;;;;;;5213093;28;20786;-52
2022/01/30 01:53:16;;;;;;;21.03;3.73;;;6.40;99.90;;;;;;5214051;28;20741;-52
2022/01/30 01:55:46;;;;;;;14.43;3.87;;;6.40;99.90;;;;;;5217796;28;20460;-50
2022/01/30 01:58:17;;;;;;;12.40;3.23;;;6.40;99.90;;;;;;5226860;28;20189;-51
2022/01/30 02:00:48;;;;;;;17.93;3.67;;;6.40;99.90;;;;;;5224093;28;20187;-53
2022/01/30 02:03:22;;;;;;;15.57;3.90;;;6.30;99.90;;;;;;5225129;28;20455;-51
2022/01/30 02:05:57;;;;;;;11.37;3.70;;;6.30;99.90;;;;;;5221887;28;20230;-51
2022/01/30 02:14:17;;;;;;;21.70;4.50;;;6.10;99.90;;;;;;5227494;28;20545;-51
2022/01/30 02:27:57;;;;;;;26.37;4.73;;;5.70;99.90;;;;;;5223681;28;20440;-50
2022/01/30 02:30:33;;;;;;;12.93;3.13;;;5.70;99.90;;;;;;5225329;28;22439;-51
2022/01/30 02:33:04;;;;;;;21.13;4.80;;;5.80;99.90;;;;;;5225831;28;20466;-51
2022/01/30 02:35:34;;;;;;;34.90;4.77;;;5.80;99.90;;;;;;5219602;28;20466;-52
2022/01/30 02:38:05;;;;;;;19.20;4.00;;;5.90;99.90;;;;;;5224905;28;20325;-51
2022/01/30 02:40:40;;;;;;;20.33;3.80;;;6.00;99.90;;;;;;5223511;28;20190;-50
2022/01/30 02:43:13;;;;;;;16.57;4.27;;;6.10;99.90;;;;;;5224080;28;20245;-50
2022/01/30 02:45:50;;;;;;;7.83;3.00;;;6.20;99.90;;;;;;5222859;28;20476;-52
2022/01/30 02:48:31;;;;;;;15.67;3.73;;;6.20;99.90;;;;;;5219025;28;20853;-52
2022/01/30 02:51:11;;;;;;;17.53;3.40;;;6.20;99.90;;;;;;5222525;28;20455;-50
2022/01/30 02:53:46;;;;;;;14.57;3.50;;;6.20;99.90;;;;;;5222735;28;20458;-53
2022/01/30 02:56:16;;;;;;;32.83;3.80;;;6.20;99.90;;;;;;5222607;28;21070;-53
2022/01/30 02:58:47;;;;;;;27.50;4.40;;;6.10;99.90;;;;;;5226427;28;20517;-52
2022/01/30 03:01:17;;;;;;;11.57;3.47;;;6.10;99.90;;;;;;5220568;28;20185;-51
2022/01/30 03:03:48;;;;;;;15.40;3.77;;;6.10;99.90;;;;;;5222689;28;20232;-52
2022/01/30 03:06:18;;;;;;;16.73;3.30;;;6.10;99.90;;;;;;5225007;28;20622;-51
2022/01/30 03:08:49;;;;;;;21.50;4.67;;;6.10;99.90;;;;;;5223145;28;20221;-57
2022/01/30 03:11:20;;;;;;;31.63;3.93;;;6.10;99.90;;;;;;5223089;28;20186;-52
2022/01/30 03:13:50;;;;;;;20.23;3.60;;;6.10;99.90;;;;;;5227963;28;20193;-50
2022/01/30 03:16:22;;;;;;;19.27;4.20;;;6.10;99.90;;;;;;5225599;28;20466;-52
2022/01/30 03:18:53;;;;;;;28.20;4.13;;;6.10;99.90;;;;;;5224711;28;20602;-51
2022/01/30 03:21:23;;;;;;;25.17;4.47;;;6.10;99.90;;;;;;5225935;28;20435;-52
2022/01/30 03:23:54;;;;;;;13.60;4.07;;;6.10;99.90;;;;;;5217804;28;20188;-51
2022/01/30 03:26:24;;;;;;;10.70;3.40;;;6.10;99.90;;;;;;5222085;28;20223;-51
2022/01/30 03:29:04;;;;;;;19.80;4.63;;;6.10;99.90;;;;;;5224250;28;20693;-52
2022/01/30 03:31:39;;;;;;;26.73;4.50;;;6.10;99.90;;;;;;5220048;28;20272;-52
2022/01/30 03:34:11;;;;;;;23.20;4.00;;;6.00;99.90;;;;;;5223283;28;20432;-52
2022/01/30 03:36:42;;;;;;;21.20;4.60;;;6.00;99.90;;;;;;5223358;28;20789;-52
2022/01/30 03:39:12;;;;;;;28.30;3.90;;;5.90;99.90;;;;;;5219561;28;20451;-50
2022/01/30 03:41:43;;;;;;;23.67;4.57;;;5.90;99.90;;;;;;5220729;28;20585;-51
2022/01/30 03:44:14;;;;;;;33.90;4.67;;;5.90;99.90;;;;;;5220258;28;20185;-51
2022/01/30 03:46:44;;;;;;;19.73;4.13;;;5.80;99.90;;;;;;5224936;28;20240;-51
2022/01/30 03:49:15;;;;;;;24.03;4.37;;;5.80;99.90;;;;;;5217409;28;20614;-50
2022/01/30 03:51:45;;;;;;;28.00;4.90;;;5.90;99.90;;;;;;5217864;28;20189;-50
2022/01/30 03:54:16;;;;;;;22.60;4.90;;;5.90;99.90;;;;;;5217171;28;20276;-50
2022/01/30 03:56:47;;;;;;;25.27;3.80;;;5.80;99.90;;;;;;5221269;28;20233;-51
2022/01/30 03:59:17;;;;;;;19.53;4.00;;;5.90;99.90;;;;;;5222219;28;20269;-51
2022/01/30 04:01:48;;;;;;;36.67;5.03;;;5.90;99.90;;;;;;5220988;28;20186;-53
2022/01/30 04:04:18;;;;;;;18.80;3.73;;;5.80;99.90;;;;;;5221839;28;20634;-50
2022/01/30 04:06:49;;;;;;;8.50;3.27;;;5.80;99.90;;;;;;5219956;28;20234;-51
2022/01/30 04:09:20;;;;;;;12.27;2.70;;;5.70;99.90;;;;;;5218599;28;20189;-52
2022/01/30 04:11:51;;;;;;;19.23;4.37;;;5.60;99.90;;;;;;5222026;28;20432;-51
2022/01/30 04:14:22;;;;;;;19.83;4.20;;;5.60;99.90;;;;;;5222896;28;20501;-51
2022/01/30 04:16:52;;;;;;;23.37;3.43;;;5.60;99.90;;;;;;5223082;28;20217;-51
2022/01/30 04:19:23;;;;;;;16.10;3.30;;;5.50;99.90;;;;;;5223559;28;20274;-50
2022/01/30 04:21:54;;;;;;;13.87;3.20;;;5.40;99.90;;;;;;5220246;28;20198;-50
2022/01/30 04:24:24;;;;;;;19.27;4.07;;;5.30;99.90;;;;;;5223705;28;20189;-50
2022/01/30 04:26:55;;;;;;;23.37;5.33;;;5.20;99.90;;;;;;5224632;28;20299;-50
2022/01/30 04:29:26;;;;;;;23.03;4.07;;;5.20;99.90;;;;;;5222456;28;20218;-50
2022/01/30 04:31:56;;;;;;;18.63;4.40;;;5.20;99.90;;;;;;5216093;28;20182;-50
2022/01/30 04:34:28;;;;;;;13.77;3.50;;;5.20;99.90;;;;;;5218992;28;20176;-50
2022/01/30 04:37:03;;;;;;;15.87;3.87;;;5.20;99.90;;;;;;5223337;28;20176;-51
2022/01/30 04:52:00;;;;;;;13.23;3.07;;;5.20;99.90;;;;;;5219540;28;20991;-50
2022/01/30 04:56:39;;;;;;;14.27;3.50;;;5.40;99.90;;;;;;5223284;28;20474;-51
2022/01/30 04:59:17;;;;;;;13.73;3.00;;;5.50;99.90;;;;;;5215817;28;20928;-51
2022/01/30 05:04:30;;;;;;;26.30;4.73;;;5.60;99.90;;;;;;5217920;28;20496;-51
2022/01/30 05:09:31;;;;;;;16.43;3.53;;;5.50;99.90;;;;;;5220439;28;20492;-51
2022/01/30 05:12:02;;;;;;;11.17;4.30;;;5.50;99.90;;;;;;5220470;28;20238;-51
2022/01/30 05:14:35;;;;;;;15.60;3.50;;;5.50;99.90;;;;;;5217474;28;20241;-52
2022/01/30 05:17:06;;;;;;;13.37;3.03;;;5.40;99.90;;;;;;5220365;28;20293;-51
2022/01/30 05:19:37;;;;;;;20.17;3.30;;;5.40;99.90;;;;;;5221975;28;20443;-50
2022/01/30 05:22:08;;;;;;;21.43;4.43;;;5.40;99.90;;;;;;5221539;28;20189;-52
2022/01/30 05:24:39;;;;;;;15.70;3.97;;;5.40;99.90;;;;;;5213197;28;20190;-51
2022/01/30 05:27:10;;;;;;;12.23;3.30;;;5.30;99.90;;;;;;5218363;28;20494;-52
2022/01/30 05:29:41;;;;;;;20.30;4.30;;;5.30;99.90;;;;;;5217956;28;20189;-52
2022/01/30 05:32:12;;;;;;;31.10;5.13;;;5.40;99.90;;;;;;5226023;28;20445;-50
2022/01/30 05:34:43;;;;;;;28.93;3.83;;;5.40;99.90;;;;;;5219785;28;20844;-51
2022/01/30 05:37:17;;;;;;;12.40;3.40;;;5.50;99.90;;;;;;5226251;28;20446;-51
2022/01/30 05:39:48;;;;;;;19.33;3.43;;;5.50;99.90;;;;;;5224855;28;20664;-50
2022/01/30 05:42:20;;;;;;;30.03;4.77;;;5.50;99.90;;;;;;5226025;28;20438;-53
2022/01/30 05:45:01;;;;;;;17.27;3.63;;;5.50;99.90;;;;;;5222811;28;20474;-51
2022/01/30 05:47:39;;;;;;;12.90;3.93;;;5.50;99.90;;;;;;5215056;28;20460;-52
2022/01/30 05:50:11;;;;;;;16.37;4.10;;;5.50;99.90;;;;;;5216647;28;21001;-52
2022/01/30 05:52:41;;;;;;;12.20;2.73;;;5.60;99.90;;;;;;5224444;28;21232;-50
2022/01/30 05:55:12;;;;;;;20.23;4.20;;;5.60;99.90;;;;;;5225736;28;20470;-51
2022/01/30 05:57:43;;;;;;;16.60;4.10;;;5.60;99.90;;;;;;5221822;28;20651;-50
2022/01/30 06:00:15;;;;;;;19.03;3.90;;;5.60;99.90;;;;;;5221952;28;20193;-51
2022/01/30 06:02:46;;;;;;;13.87;3.47;;;5.60;99.90;;;;;;5218082;28;20601;-51
2022/01/30 06:05:19;;;;;;;18.63;4.33;;;5.50;99.90;;;;;;5226573;23;20505;-48
2022/01/30 06:07:54;;;;;;;11.50;2.90;;;5.50;99.90;;;;;;5177826;28;20444;-47
2022/01/30 06:10:26;;;;;;;20.47;3.87;;;5.50;99.90;;;;;;5202572;28;20430;-48
2022/01/30 06:12:57;;;;;;;28.67;4.50;;;5.50;99.90;;;;;;5200579;28;20465;-48
2022/01/30 06:15:27;;;;;;;8.50;3.20;;;5.60;99.90;;;;;;5205929;28;20518;-47
2022/01/30 06:17:58;;;;;;;24.10;4.43;;;5.60;99.90;;;;;;5207065;28;20711;-48
2022/01/30 06:20:29;;;;;;;17.90;4.73;;;5.60;99.90;;;;;;5193931;28;20344;-47
2022/01/30 06:22:59;;;;;;;17.17;3.97;;;5.60;99.90;;;;;;5200368;28;20651;-47
2022/01/30 06:25:30;;;;;;;14.33;3.83;;;5.60;99.90;;;;;;5192454;28;20770;-48
2022/01/30 06:28:00;;;;;;;16.20;4.10;;;5.70;99.90;;;;;;5200873;28;20638;-48
2022/01/30 06:30:31;;;;;;;33.07;4.50;;;5.70;99.90;;;;;;5205078;28;20194;-48
2022/01/30 06:33:01;;;;;;;18.40;4.57;;;5.70;99.90;;;;;;5202242;28;20194;-49
2022/01/30 06:35:32;;;;;;;24.63;5.83;;;5.60;99.90;;;;;;5194796;28;20683;-49
2022/01/30 06:38:03;;;;;;;18.17;4.40;;;5.70;99.90;;;;;;5202219;28;20193;-47
2022/01/30 06:40:33;;;;;;;25.50;4.20;;;5.70;99.90;;;;;;5200412;28;20186;-47
2022/01/30 06:43:04;;;;;;;20.03;3.70;;;5.60;99.90;;;;;;5198098;28;20482;-48
2022/01/30 06:45:35;;;;;;;22.30;4.03;;;5.60;99.90;;;;;;5204965;28;20226;-48
2022/01/30 06:48:06;;;;;;;14.70;4.10;;;5.60;99.90;;;;;;5204655;28;20611;-47
2022/01/30 06:50:37;;;;;;;18.63;4.00;;;5.60;99.90;;;;;;5202857;28;20439;-48
2022/01/30 06:53:07;;;;;;;32.90;5.30;;;5.70;99.90;;;;;;5198724;28;20843;-47
2022/01/30 06:55:42;;;;;;;15.40;3.83;;;5.60;99.90;;;;;;5206416;28;20218;-46
2022/01/30 06:58:12;;;;;;;13.43;2.67;;;5.70;99.90;;;;;;5200374;28;20212;-48
2022/01/30 07:00:43;;;;;;;20.77;4.53;;;5.70;99.90;;;;;;5201819;28;20550;-49
2022/01/30 07:03:14;;;;;;;36.07;3.90;;;5.80;99.90;;;;;;5185542;28;20264;-48
2022/01/30 07:05:44;;;;;;;9.93;3.40;;;5.80;99.90;;;;;;5207372;28;20218;-48
2022/01/30 07:08:15;;;;;;;23.53;4.47;;;5.90;99.90;;;;;;5203664;28;20247;-49
2022/01/30 07:10:45;;;;;;;20.97;4.43;;;5.90;99.90;;;;;;5191135;28;20282;-47
2022/01/30 07:13:16;;;;;;;19.93;4.47;;;5.90;99.90;;;;;;5198743;28;20180;-48
2022/01/30 07:15:46;;;;;;;23.27;4.10;;;6.00;99.90;;;;;;5198841;28;20222;-48
2022/01/30 07:18:17;;;;;;;19.47;3.80;;;6.00;99.90;;;;;;5201182;28;20198;-48
2022/01/30 07:20:47;;;;;;;20.23;4.13;;;6.00;99.90;;;;;;5197850;28;20187;-48
2022/01/30 07:23:18;;;;;;;27.47;5.10;;;6.10;99.90;;;;;;5194888;28;20197;-47
2022/01/30 07:25:48;;;;;;;20.13;4.17;;;6.00;99.90;;;;;;5199528;28;20226;-47
2022/01/30 07:28:19;;;;;;;28.73;5.43;;;6.10;99.90;;;;;;5201642;28;20578;-48
2022/01/30 07:30:49;;;;;;;21.97;4.30;;;6.10;99.90;;;;;;5198880;28;20195;-48
2022/01/30 07:33:20;;;;;;;17.63;3.03;;;6.10;99.90;;;;;;5199833;28;20195;-48
2022/01/30 07:35:53;;;;;;;19.30;4.70;;;6.10;99.90;;;;;;5196840;28;21463;-48
2022/01/30 07:38:24;;;;;;;10.90;3.37;;;6.10;99.90;;;;;;5200451;28;20184;-48
2022/01/30 07:40:54;;;;;;;14.93;4.20;;;6.10;99.90;;;;;;5197856;28;20441;-48
2022/01/30 07:43:25;;;;;;;20.50;4.00;;;6.10;99.90;;;;;;5202457;28;20589;-47
2022/01/30 07:45:56;;;;;;;19.63;4.20;;;6.10;99.90;;;;;;5210683;28;20252;-49
2022/01/30 07:48:26;;;;;;;13.87;3.67;;;6.10;99.90;;;;;;5187574;28;20177;-48
2022/01/30 07:50:57;;;;;;;12.93;3.93;;;6.20;99.90;;;;;;5195990;28;20181;-49
2022/01/30 07:53:27;;;;;;;16.50;3.70;;;6.20;99.90;;;;;;5199499;28;20175;-47
2022/01/30 07:55:58;;;;;;;16.23;3.80;;;6.20;99.90;;;;;;5205007;28;20309;-49
2022/01/30 07:58:29;;;;;;;15.53;3.23;;;6.20;99.90;;;;;;5203782;28;20184;-47
2022/01/30 08:00:59;;;;;;;20.07;4.43;;;6.20;99.90;;;;;;5184142;28;20187;-48
2022/01/30 08:03:30;;;;;;;19.13;3.00;;;6.20;99.90;;;;;;5203280;28;20265;-50
2022/01/30 08:06:00;;;;;;;24.00;4.13;;;6.20;99.90;;;;;;5202111;28;20237;-48
2022/01/30 08:08:31;;;;;;;14.77;4.17;;;6.20;99.90;;;;;;5200765;28;20183;-47
2022/01/30 08:11:02;;;;;;;10.87;3.60;;;6.20;99.90;;;;;;5197867;28;20742;-47
2022/01/30 08:13:33;;;;;;;26.20;3.70;;;6.20;99.90;;;;;;5198351;28;20545;-49
2022/01/30 08:16:04;;;;;;;27.77;5.00;;;6.20;99.90;;;;;;5193639;28;20461;-47
2022/01/30 08:18:37;;;;;;;24.20;4.10;;;6.20;99.90;;;;;;5195861;28;20278;-48
2022/01/30 08:21:07;;;;;;;16.70;4.50;;;6.20;99.90;;;;;;5188145;28;20528;-48
2022/01/30 08:23:38;;;;;;;11.50;3.50;;;6.20;99.90;;;;;;5195951;28;20434;-48
2022/01/30 08:26:09;;;;;;;20.13;3.80;;;6.30;99.90;;;;;;5197358;28;20223;-47
2022/01/30 08:28:39;;;;;;;18.60;4.73;;;6.20;99.90;;;;;;5168922;28;20210;-47
2022/01/30 08:31:10;;;;;;;22.90;3.80;;;6.30;99.90;;;;;;5193916;28;20188;-50
2022/01/30 08:33:40;;;;;;;19.87;4.10;;;6.30;99.90;;;;;;5198781;28;20183;-48
2022/01/30 08:36:11;;;;;;;21.73;4.33;;;6.30;99.90;;;;;;5179058;28;20211;-49
2022/01/30 08:38:41;;;;;;;21.73;3.37;;;6.30;99.90;;;;;;5191234;28;20589;-49
2022/01/30 08:41:12;;;;;;;18.03;3.77;;;6.30;99.90;;;;;;5198070;28;20257;-49
2022/01/30 08:43:42;;;;;;;22.03;4.00;;;6.30;99.90;;;;;;5203637;28;20677;-47
2022/01/30 08:46:14;;;;;;;21.67;4.50;;;6.30;99.90;;;;;;5194988;28;20210;-49
2022/01/30 08:48:45;;;;;;;22.10;3.87;;;6.30;99.90;;;;;;5197373;28;20183;-50
2022/01/30 08:51:15;;;;;;;20.37;4.27;;;6.40;99.90;;;;;;5196060;28;20445;-49
2022/01/30 08:53:46;;;;;;;17.83;4.13;;;6.40;99.90;;;;;;5197113;28;20191;-50
2022/01/30 08:56:18;;;;;;;14.60;4.27;;;6.50;99.90;;;;;;5202321;28;20222;-49
2022/01/30 08:58:49;;;;;;;32.93;4.50;;;6.50;99.90;;;;;;5202433;28;20655;-47
2022/01/30 09:01:20;;;;;;;15.23;4.20;;;6.50;99.90;;;;;;5200461;28;20524;-48
2022/01/30 09:03:50;;;;;;;16.57;3.60;;;6.40;99.90;;;;;;5195427;28;20433;-48
2022/01/30 09:06:21;;;;;;;15.07;3.80;;;6.40;99.90;;;;;;5203343;28;20217;-47
2022/01/30 09:08:51;;;;;;;21.10;4.83;;;6.50;99.90;;;;;;5201619;28;20191;-50
2022/01/30 09:11:22;;;;;;;24.47;4.80;;;6.50;99.90;;;;;;5202139;28;20175;-47
2022/01/30 09:13:52;;;;;;;21.33;3.70;;;6.60;99.90;;;;;;5202948;28;20190;-48
2022/01/30 09:16:23;;;;;;;24.97;4.30;;;6.70;99.90;;;;;;5201982;28;20213;-47
2022/01/30 09:18:53;;;;;;;19.43;4.87;;;6.70;99.90;;;;;;5197954;28;20530;-48
2022/01/30 09:21:24;;;;;;;15.30;3.70;;;6.80;99.90;;;;;;5199829;28;20275;-52
2022/01/30 09:23:55;;;;;;;38.57;5.60;;;6.80;99.90;;;;;;5204562;28;20183;-48
2022/01/30 09:26:26;;;;;;;25.43;4.67;;;6.80;99.90;;;;;;5205449;28;20207;-50
2022/01/30 09:28:56;;;;;;;19.33;4.37;;;6.90;99.90;;;;;;5191037;28;20787;-48
2022/01/30 09:31:27;;;;;;;19.33;4.23;;;6.80;99.90;;;;;;5199102;28;20662;-46
2022/01/30 09:33:57;;;;;;;15.67;4.43;;;6.90;99.90;;;;;;5198076;28;20183;-48
2022/01/30 09:36:28;;;;;;;24.30;4.90;;;6.90;99.90;;;;;;5197862;28;20208;-49
2022/01/30 09:38:58;;;;;;;28.17;5.37;;;6.90;99.90;;;;;;5198890;28;20265;-48
2022/01/30 09:41:29;;;;;;;23.37;4.20;;;7.00;99.90;;;;;;5202909;28;20226;-48
2022/01/30 09:44:01;;;;;;;18.47;4.67;;;6.90;99.90;;;;;;5205169;28;20523;-48
2022/01/30 09:46:32;;;;;;;25.13;5.43;;;6.90;99.70;;;;;;5196573;28;20345;-50
2022/01/30 09:49:04;;;;;;;22.87;4.97;;;6.90;99.70;;;;;;5200504;28;20437;-49
2022/01/30 09:51:39;;;;;;;24.93;5.20;;;7.00;99.90;;;;;;5200713;28;20441;-48
2022/01/30 09:54:11;;;;;;;27.33;5.87;;;6.90;99.00;;;;;;5194939;28;20429;-48
2022/01/30 09:56:42;;;;;;;20.77;4.13;;;6.90;99.40;;;;;;5202561;28;20500;-48
2022/01/30 09:59:12;;;;;;;24.87;4.20;;;6.90;99.30;;;;;;5196506;28;20852;-48
2022/01/30 10:01:43;;;;;;;31.57;5.60;;;6.90;98.10;;;;;;5198187;28;20176;-48
2022/01/30 10:04:13;;;;;;;14.20;4.67;;;6.90;99.70;;;;;;5208395;28;20183;-48
2022/01/30 10:06:53;;;;;;;32.63;5.10;;;6.90;98.40;;;;;;5192801;28;20287;-49
2022/01/30 10:09:32;;;;;;;42.07;5.83;;;6.90;98.70;;;;;;5199200;28;20175;-50
2022/01/30 10:12:19;;;;;;;28.73;5.37;;;6.90;98.80;;;;;;5195530;28;20527;-48
2022/01/30 10:15:03;;;;;;;17.67;4.87;;;6.90;98.00;;;;;;5204686;28;20476;-48
2022/01/30 10:17:46;;;;;;;23.13;5.03;;;6.90;98.10;;;;;;5194649;28;20438;-48
2022/01/30 10:20:19;;;;;;;30.73;4.47;;;7.00;98.60;;;;;;5191315;28;20462;-48
2022/01/30 10:22:59;;;;;;;22.37;5.33;;;7.00;97.20;;;;;;5199181;28;20907;-49
2022/01/30 10:25:33;;;;;;;24.90;4.83;;;6.90;97.60;;;;;;5195940;28;20509;-48
2022/01/30 10:28:09;;;;;;;20.13;5.37;;;7.00;97.60;;;;;;5199221;28;20508;-47
2022/01/30 10:30:51;;;;;;;18.73;5.10;;;7.00;97.90;;;;;;5194781;28;20457;-49
2022/01/30 10:33:45;;;;;;;23.87;5.10;;;7.00;97.80;;;;;;5196863;28;20484;-51
2022/01/30 10:36:29;;;;;;;31.50;7.00;;;7.10;96.90;;;;;;5201567;28;20540;-48
2022/01/30 10:39:12;;;;;;;33.57;6.90;;;7.10;97.10;;;;;;5200514;28;20553;-48
2022/01/30 10:41:48;;;;;;;30.23;7.13;;;7.10;97.60;;;;;;5198996;28;20439;-49
2022/01/30 10:44:19;;;;;;;28.53;4.83;;;7.10;97.90;;;;;;5195357;28;20425;-50
2022/01/30 10:46:53;;;;;;;24.33;5.20;;;7.20;97.10;;;;;;5200908;28;20477;-49
2022/01/30 10:49:24;;;;;;;24.90;5.23;;;7.20;96.40;;;;;;5197339;28;20464;-47
2022/01/30 10:52:00;;;;;;;42.43;5.00;;;7.20;96.00;;;;;;5194551;28;20434;-48
2022/01/30 10:54:33;;;;;;;23.73;5.00;;;7.20;96.30;;;;;;5203312;28;20632;-48
2022/01/30 10:57:12;;;;;;;36.67;5.97;;;7.20;96.40;;;;;;5200162;28;20450;-49
2022/01/30 10:59:43;;;;;;;40.60;5.93;;;7.20;95.80;;;;;;5200324;28;20461;-51
2022/01/30 11:02:19;;;;;;;16.57;5.17;;;7.10;95.50;;;;;;5200259;28;20551;-49
2022/01/30 11:04:59;;;;;;;34.43;7.73;;;7.20;96.30;;;;;;5206009;28;20434;-50
2022/01/30 11:07:34;;;;;;;29.10;5.07;;;7.20;96.20;;;;;;5197272;28;20549;-49
2022/01/30 11:10:16;;;;;;;25.50;5.97;;;7.20;95.20;;;;;;5197515;28;20441;-48
2022/01/30 11:12:56;;;;;;;22.70;6.30;;;7.10;95.30;;;;;;5198016;28;20525;-48
2022/01/30 11:18:04;;;;;;;35.07;7.97;;;7.00;96.20;;;;;;5199336;28;20887;-47
2022/01/30 11:20:35;;;;;;;32.30;8.90;;;7.00;96.00;;;;;;5206630;28;20434;-50
2022/01/30 11:23:09;;;;;;;33.90;6.57;;;7.00;95.50;;;;;;5214842;28;20430;-51
2022/01/30 11:25:43;;;;;;;24.47;4.77;;;7.00;95.30;;;;;;5197587;28;20211;-49
2022/01/30 11:28:15;;;;;;;27.70;6.63;;;7.10;95.80;;;;;;5196339;28;20532;-49
2022/01/30 11:30:46;;;;;;;55.37;12.80;;;7.10;94.80;;;;;;5192235;28;20834;-47
2022/01/30 11:33:18;;;;;;;36.87;7.50;;;7.20;93.80;;;;;;5190843;28;20614;-48
2022/01/30 11:35:50;;;;;;;33.07;5.60;;;7.20;94.20;;;;;;5197394;28;20204;-49
2022/01/30 11:38:20;;;;;;;34.23;6.97;;;7.30;94.70;;;;;;5193918;28;20523;-49
2022/01/30 11:41:13;;;;;;;33.77;7.13;;;7.30;92.50;;;;;;5191582;28;20533;-49
2022/01/30 11:44:18;;;;;;;36.70;5.97;;;7.40;91.60;;;;;;5198826;28;20698;-49
2022/01/30 11:46:52;;;;;;;24.07;5.67;;;7.40;92.30;;;;;;5194011;28;20474;-49
2022/01/30 11:49:36;;;;;;;39.00;7.10;;;7.40;92.10;;;;;;5193686;28;20922;-49
2022/01/30 11:52:11;;;;;;;25.97;6.30;;;7.40;91.40;;;;;;5195765;28;20435;-48
2022/01/30 11:54:50;;;;;;;26.13;5.90;;;7.40;91.10;;;;;;5201932;28;20430;-50
2022/01/30 11:57:21;;;;;;;30.67;6.10;;;7.50;91.30;;;;;;5175851;28;20561;-48
2022/01/30 11:59:54;;;;;;;42.77;6.63;;;7.40;88.80;;;;;;5194807;28;20443;-49
2022/01/30 12:02:31;;;;;;;27.67;6.27;;;7.50;87.90;;;;;;5192221;28;20188;-48
2022/01/30 12:05:11;;;;;;;37.40;5.90;;;7.50;87.00;;;;;;5197858;28;20934;-48
2022/01/30 12:07:47;;;;;;;22.43;6.27;;;7.50;85.80;;;;;;5182941;22;20500;-55
2022/01/30 12:10:20;;;;;;;28.90;7.53;;;7.50;84.70;;;;;;5160083;28;20459;-52
2022/01/30 12:12:52;;;;;;;50.83;10.57;;;7.50;85.00;;;;;;5156907;28;20563;-49
2022/01/30 12:15:49;;;;;;;36.20;7.87;;;7.50;83.40;;;;;;5157022;28;20843;-51
2022/01/30 12:18:44;;;;;;;26.40;6.70;;;7.40;85.10;;;;;;5139940;28;20507;-51
2022/01/30 12:21:16;;;;;;;41.83;8.63;;;7.50;84.70;;;;;;5131384;28;20526;-51
2022/01/30 12:23:46;;;;;;;28.23;5.87;;;7.50;82.90;;;;;;5136737;28;20487;-54
2022/01/30 12:26:19;;;;;;;31.13;7.00;;;7.50;81.10;;;;;;5134689;28;20485;-51
2022/01/30 12:28:54;;;;;;;35.40;6.90;;;7.50;81.50;;;;;;5126421;28;20185;-53
2022/01/30 12:31:38;;;;;;;38.70;6.07;;;7.40;80.80;;;;;;5125455;28;20440;-51
2022/01/30 12:34:16;;;;;;;41.53;6.63;;;7.30;82.80;;;;;;5131065;28;20814;-52
2022/01/30 12:36:54;;;;;;;30.33;7.03;;;7.30;84.80;;;;;;5158065;28;20471;-52
2022/01/30 12:39:25;;;;;;;47.93;8.20;;;7.40;82.50;;;;;;5131627;28;20442;-53
2022/01/30 12:41:55;;;;;;;24.33;7.60;;;7.40;83.00;;;;;;5138536;28;20498;-52
2022/01/30 12:44:29;;;;;;;50.23;12.40;;;7.40;83.20;;;;;;5139802;28;20186;-51
2022/01/30 12:47:00;;;;;;;26.43;6.70;;;7.40;84.00;;;;;;5134738;28;20216;-52
2022/01/30 12:49:32;;;;;;;41.47;7.37;;;7.50;83.30;;;;;;5137152;28;20444;-54
2022/01/30 12:52:06;;;;;;;29.97;6.87;;;7.60;83.70;;;;;;5136782;28;20297;-52
2022/01/30 12:54:39;;;;;;;28.33;6.03;;;7.60;82.80;;;;;;5131717;28;20560;-52
2022/01/30 12:57:11;;;;;;;45.47;9.47;;;7.60;81.60;;;;;;5130344;28;20465;-53
2022/01/30 12:59:54;;;;;;;24.50;6.40;;;7.50;81.20;;;;;;5134168;28;20460;-52
2022/01/30 13:02:28;;;;;;;24.70;7.13;;;7.60;82.30;;;;;;5138568;28;20532;-54
2022/01/30 13:05:10;;;;;;;41.83;6.43;;;7.50;81.30;;;;;;5135163;28;20438;-54
2022/01/30 13:07:51;;;;;;;44.63;6.70;;;7.50;81.00;;;;;;5141576;28;20457;-53
2022/01/30 13:10:22;;;;;;;41.27;6.80;;;7.50;79.90;;;;;;5138915;28;20850;-53
2022/01/30 13:12:55;;;;;;;38.07;7.67;;;7.50;80.00;;;;;;5133631;28;20853;-53
2022/01/30 13:15:27;;;;;;;51.20;7.80;;;7.50;80.70;;;;;;5141495;28;20431;-53
2022/01/30 13:18:01;;;;;;;41.03;7.97;;;7.50;81.10;;;;;;5142754;28;20471;-53
2022/01/30 13:20:31;;;;;;;47.63;9.23;;;7.70;80.80;;;;;;5134723;28;20515;-53
2022/01/30 13:23:03;;;;;;;34.53;8.83;;;7.60;77.70;;;;;;5141243;28;20460;-53
2022/01/30 13:25:33;;;;;;;26.47;6.07;;;7.60;78.50;;;;;;5149263;28;20237;-52
2022/01/30 13:28:04;;;;;;;23.30;6.50;;;7.50;77.30;;;;;;5140103;28;20454;-52
2022/01/30 13:30:34;;;;;;;35.53;7.00;;;7.50;78.70;;;;;;5133155;28;20208;-53
2022/01/30 13:33:06;;;;;;;32.20;7.07;;;7.50;78.60;;;;;;5141544;28;20190;-54
2022/01/30 13:35:36;;;;;;;30.23;6.43;;;7.40;78.80;;;;;;5128870;28;20984;-53
2022/01/30 13:38:07;;;;;;;30.00;6.20;;;7.30;78.30;;;;;;5134652;28;20440;-53
2022/01/30 13:40:52;;;;;;;33.13;7.57;;;7.30;79.90;;;;;;5141882;28;20199;-53
2022/01/30 13:43:26;;;;;;;48.13;14.97;;;7.20;81.80;;;;;;5137099;28;20184;-53
2022/01/30 13:48:34;;;;;;;54.47;7.80;;;7.10;85.50;;;;;;5135591;28;20594;-53
2022/01/30 13:51:05;;;;;;;37.53;8.23;;;7.00;87.10;;;;;;5138636;28;20196;-53
2022/01/30 13:53:40;;;;;;;26.83;5.90;;;7.00;88.40;;;;;;5135759;28;20520;-53
2022/01/30 13:56:13;;;;;;;38.37;5.80;;;7.10;87.50;;;;;;5134099;28;20469;-54
2022/01/30 13:58:49;;;;;;;27.30;6.57;;;7.10;85.20;;;;;;5130587;28;20437;-52
2022/01/30 14:01:26;;;;;;;43.13;6.73;;;7.20;86.30;;;;;;5130101;28;20485;-54
2022/01/30 14:04:11;;;;;;;31.93;6.40;;;7.20;83.90;;;;;;5131000;28;20444;-54
2022/01/30 14:06:42;;;;;;;31.40;8.13;;;7.20;83.70;;;;;;5129723;28;20481;-54
2022/01/30 14:09:15;;;;;;;36.40;5.30;;;7.20;84.30;;;;;;5131578;28;20438;-53
2022/01/30 14:11:52;;;;;;;37.67;8.20;;;7.20;83.90;;;;;;5129253;28;20605;-55
2022/01/30 14:14:23;;;;;;;28.50;8.30;;;7.30;83.20;;;;;;5137500;28;20440;-53
2022/01/30 14:17:00;;;;;;;25.53;6.37;;;7.20;84.70;;;;;;5136609;28;20444;-54